createdAt,value
2019-05-12T00:50:28.616Z,0.00
2019-05-12T01:08:19.877Z,0.00
2019-05-12T01:09:19.891Z,0.00
2019-05-12T01:10:19.819Z,0.00
2019-05-12T01:11:20.513Z,0.00
2019-05-12T01:12:19.729Z,0.00
2019-05-12T01:13:19.698Z,0.00
2019-05-12T01:14:19.700Z,0.00
2019-05-12T01:15:19.511Z,0.00
2019-05-12T01:16:19.264Z,0.00
2019-05-12T01:17:19.254Z,0.00
2019-05-12T01:18:19.198Z,0.00
2019-05-12T01:19:19.177Z,0.00
2019-05-12T01:20:19.144Z,0.00
2019-05-12T01:21:19.127Z,0.00
2019-05-12T01:22:19.119Z,0.00
2019-05-12T01:23:23.053Z,0.00
2019-05-12T01:24:19.083Z,0.00
2019-05-12T01:25:19.086Z,0.00
2019-05-12T01:26:19.043Z,0.00
2019-05-12T01:27:19.054Z,0.00
2019-05-12T01:28:19.011Z,0.00
2019-05-12T01:29:18.972Z,0.00
2019-05-12T01:30:18.995Z,0.00
2019-05-12T01:31:18.981Z,0.00
2019-05-12T01:32:18.931Z,0.00
2019-05-12T01:33:18.893Z,0.00
2019-05-12T01:34:18.882Z,0.00
2019-05-12T01:35:18.881Z,0.00
2019-05-12T01:36:18.839Z,0.00
2019-05-12T01:37:18.840Z,0.00
2019-05-12T01:38:18.795Z,0.00
2019-05-12T01:39:18.921Z,0.00
2019-05-12T01:40:19.138Z,0.00
2019-05-12T01:41:18.762Z,0.00
2019-05-12T01:42:18.723Z,0.00
2019-05-12T01:43:21.225Z,0.00
2019-05-12T01:44:18.682Z,0.00
2019-05-12T01:45:18.678Z,0.00
2019-05-12T01:46:18.668Z,0.00
2019-05-12T01:47:18.871Z,0.00
2019-05-12T01:48:18.616Z,0.00
2019-05-12T01:49:18.834Z,0.00
2019-05-12T01:50:18.594Z,0.00
2019-05-12T01:51:18.569Z,0.00
2019-05-12T01:52:18.544Z,0.00
2019-05-12T01:53:18.515Z,0.00
2019-05-12T01:54:18.966Z,0.00
2019-05-12T01:55:18.693Z,0.00
2019-05-12T01:56:18.462Z,0.00
2019-05-12T01:57:18.924Z,0.00
2019-05-12T01:58:19.400Z,0.00
2019-05-12T01:59:18.601Z,0.00
2019-05-12T02:00:18.401Z,0.00
2019-05-12T02:01:18.528Z,0.00
2019-05-12T02:02:18.342Z,0.00
2019-05-12T02:03:18.341Z,0.00
2019-05-12T02:04:18.318Z,0.00
2019-05-12T02:05:18.411Z,0.00
2019-05-12T02:06:18.533Z,0.00
2019-05-12T02:07:18.586Z,0.00
2019-05-12T02:08:18.566Z,0.00
2019-05-12T02:09:18.660Z,0.00
2019-05-12T02:10:18.198Z,0.00
2019-05-12T02:11:18.468Z,0.00
2019-05-12T02:12:18.297Z,0.00
2019-05-12T02:13:18.326Z,0.00
2019-05-12T02:14:18.407Z,0.00
2019-05-12T02:15:18.448Z,0.00
2019-05-12T02:16:18.827Z,0.00
2019-05-12T02:17:18.072Z,0.00
2019-05-12T02:18:18.054Z,0.00
2019-05-12T02:19:18.021Z,0.00
2019-05-12T02:20:18.216Z,0.00
2019-05-12T02:21:18.840Z,0.00
2019-05-12T02:22:18.946Z,0.00
2019-05-12T02:23:17.969Z,0.00
2019-05-12T02:24:26.679Z,0.00
2019-05-12T02:25:18.621Z,0.00
2019-05-12T02:26:18.956Z,0.00
2019-05-12T02:27:17.948Z,0.00
2019-05-12T02:28:18.094Z,0.00
2019-05-12T02:29:18.413Z,0.00
2019-05-12T02:30:20.337Z,0.00
2019-05-12T02:31:20.599Z,0.00
2019-05-12T02:32:17.798Z,0.00
2019-05-12T02:36:15.079Z,0.00
2019-05-12T02:37:15.317Z,0.00
2019-05-12T02:38:14.433Z,0.00
2019-05-12T02:39:14.837Z,0.00
2019-05-12T03:11:35.523Z,0.00
2019-05-12T03:12:34.483Z,0.00
2019-05-12T03:57:16.814Z,0.00
2019-05-12T03:58:16.860Z,0.00
2019-05-12T03:59:16.855Z,0.00
2019-05-12T04:00:16.861Z,0.00
2019-05-12T04:01:16.785Z,0.00
2019-05-12T04:05:38.269Z,0.00
2019-05-12T04:17:18.725Z,0.00
2019-05-12T04:28:45.554Z,0.00
2019-05-12T04:34:06.893Z,0.00
2019-05-12T04:35:06.602Z,0.00
2019-05-12T04:36:06.318Z,0.00
2019-05-12T04:37:06.091Z,0.00
2019-05-12T04:38:06.102Z,0.00
2019-05-12T04:39:06.147Z,0.00
2019-05-12T04:40:06.072Z,0.00
2019-05-12T04:41:06.260Z,0.00
2019-05-12T04:42:05.943Z,0.00
2019-05-12T04:43:06.798Z,0.00
2019-05-12T04:44:06.370Z,0.00
2019-05-12T04:45:06.029Z,5.63
2019-05-12T04:48:27.886Z,5.63
2019-05-12T04:49:28.220Z,5.63
2019-05-12T05:59:50.398Z,33.75
2019-05-12T06:00:54.819Z,33.75
2019-05-12T06:03:48.092Z,33.75
2019-05-12T06:04:49.801Z,33.75
2019-05-12T06:05:48.047Z,33.75
2019-05-12T06:06:50.478Z,33.75
2019-05-12T06:07:47.987Z,33.75
2019-05-12T06:08:48.015Z,33.75
2019-05-12T06:09:47.928Z,33.75
2019-05-12T06:10:47.900Z,39.38
2019-05-12T06:11:47.905Z,39.38
2019-05-12T06:12:50.838Z,39.38
2019-05-12T06:13:47.858Z,33.75
2019-05-12T06:14:54.342Z,33.75
2019-05-12T06:15:47.845Z,33.75
2019-05-12T06:16:47.827Z,33.75
2019-05-12T06:17:47.775Z,33.75
2019-05-12T06:18:47.767Z,33.75
2019-05-12T06:19:47.833Z,33.75
2019-05-12T06:20:47.724Z,33.75
2019-05-12T06:21:47.727Z,33.75
2019-05-12T06:22:48.558Z,33.75
2019-05-12T06:23:47.671Z,33.75
2019-05-12T06:24:49.194Z,33.75
2019-05-12T06:33:44.814Z,33.75
2019-05-12T06:34:44.508Z,33.75
2019-05-12T07:00:35.567Z,45.00
2019-05-12T07:01:35.398Z,45.00
2019-05-12T07:02:44.578Z,45.00
2019-05-12T07:03:37.155Z,45.00
2019-05-12T07:04:35.290Z,39.38
2019-05-12T07:05:38.392Z,39.38
2019-05-12T07:06:34.886Z,45.00
2019-05-12T07:07:41.880Z,39.38
2019-05-12T07:08:38.319Z,39.38
2019-05-12T07:09:39.780Z,45.00
2019-05-12T07:10:42.995Z,45.00
2019-05-12T07:11:42.567Z,39.38
2019-05-12T07:12:43.598Z,45.00
2019-05-12T07:13:34.762Z,50.63
2019-05-12T07:14:34.784Z,39.38
2019-05-12T07:15:39.863Z,39.38
2019-05-12T07:16:34.750Z,45.00
2019-05-12T07:17:35.678Z,45.00
2019-05-12T07:18:37.113Z,39.38
2019-05-12T07:19:34.730Z,45.00
2019-05-12T07:20:38.749Z,45.00
2019-05-12T07:21:34.650Z,45.00
2019-05-12T07:22:43.572Z,45.00
2019-05-12T07:23:34.615Z,45.00
2019-05-12T07:24:34.585Z,45.00
2019-05-12T07:25:36.791Z,45.00
2019-05-12T07:26:34.531Z,39.38
2019-05-12T07:27:39.361Z,45.00
2019-05-12T07:28:36.229Z,50.63
2019-05-12T07:29:34.506Z,45.00
2019-05-12T07:30:35.317Z,45.00
2019-05-12T07:31:34.451Z,45.00
2019-05-12T07:32:34.480Z,45.00
2019-05-12T07:33:41.375Z,39.38
2019-05-12T07:34:34.415Z,39.38
2019-05-12T07:35:34.434Z,45.00
2019-05-12T07:36:34.397Z,45.00
2019-05-12T07:37:34.360Z,45.00
2019-05-12T07:38:34.445Z,45.00
2019-05-12T07:39:39.295Z,45.00
2019-05-12T07:40:37.376Z,39.38
2019-05-12T07:41:34.359Z,39.38
2019-05-12T08:23:18.351Z,61.88
2019-05-12T08:24:18.277Z,56.25
2019-05-12T08:28:15.470Z,56.25
2019-05-12T08:29:10.511Z,56.25
2019-05-12T08:31:40.352Z,61.88
2019-05-12T08:32:35.983Z,61.88
2019-05-12T08:34:40.546Z,61.88
2019-05-12T08:35:40.521Z,61.88
2019-05-12T08:37:46.125Z,61.88
2019-05-12T08:38:46.095Z,61.88
2019-05-12T08:40:45.346Z,67.50
2019-05-12T08:41:39.675Z,67.50
2019-05-12T08:43:47.135Z,73.13
2019-05-12T08:44:44.353Z,78.75
2019-05-12T08:45:44.558Z,73.13
2019-05-12T08:46:51.963Z,67.50
2019-05-12T08:47:44.284Z,61.88
2019-05-12T08:48:44.708Z,61.88
2019-05-12T08:49:51.008Z,61.88
2019-05-12T08:50:46.156Z,56.25
2019-05-12T08:51:44.348Z,50.63
2019-05-12T08:52:44.466Z,50.63
2019-05-12T08:53:44.178Z,56.25
2019-05-12T08:54:47.669Z,50.63
2019-05-12T08:55:44.143Z,45.00
2019-05-12T08:56:44.126Z,50.63
2019-05-12T08:57:49.433Z,56.25
2019-05-12T08:58:51.099Z,61.88
2019-05-12T08:59:44.232Z,56.25
2019-05-12T09:00:49.696Z,56.25
2019-05-12T09:01:44.048Z,61.88
2019-05-12T09:02:48.735Z,61.88
2019-05-12T09:03:44.388Z,56.25
2019-05-12T09:04:51.541Z,56.25
2019-05-12T09:05:44.557Z,56.25
2019-05-12T09:06:43.962Z,61.88
2019-05-12T09:07:43.951Z,61.88
2019-05-12T09:08:49.048Z,56.25
2019-05-12T09:09:44.030Z,67.50
2019-05-12T09:10:45.193Z,73.13
2019-05-12T09:11:44.170Z,78.75
2019-05-12T09:12:44.212Z,84.38
2019-05-12T09:13:44.106Z,90.00
2019-05-12T09:14:46.106Z,90.00
2019-05-12T09:15:43.988Z,90.00
2019-05-12T09:16:44.045Z,95.63
2019-05-12T09:17:52.674Z,101.25
2019-05-12T09:18:43.777Z,106.88
2019-05-12T09:19:43.781Z,112.50
2019-05-12T09:20:48.716Z,112.50
2019-05-12T09:21:44.353Z,112.50
2019-05-12T09:22:43.715Z,112.50
2019-05-12T09:23:45.660Z,106.88
2019-05-12T09:24:44.140Z,106.88
2019-05-12T09:25:46.818Z,123.75
2019-05-12T09:26:43.662Z,135.00
2019-05-12T09:27:48.055Z,140.63
2019-05-12T09:28:49.863Z,135.00
2019-05-12T09:29:43.671Z,219.38
2019-05-12T09:30:45.869Z,253.13
2019-05-12T09:31:44.027Z,270.00
2019-05-12T09:32:48.249Z,410.63
2019-05-12T09:33:44.569Z,326.25
2019-05-12T09:34:46.882Z,191.25
2019-05-12T09:35:43.944Z,416.25
2019-05-12T09:36:44.244Z,326.25
2019-05-12T09:37:44.128Z,421.88
2019-05-12T09:38:43.998Z,191.25
2019-05-12T09:39:47.411Z,213.75
2019-05-12T09:40:43.886Z,168.75
2019-05-12T09:41:49.465Z,303.75
2019-05-12T09:42:44.085Z,213.75
2019-05-12T09:43:48.915Z,174.38
2019-05-12T09:44:43.894Z,354.38
2019-05-12T09:45:51.635Z,320.63
2019-05-12T09:46:44.003Z,360.00
2019-05-12T09:47:43.744Z,343.13
2019-05-12T09:48:51.901Z,331.88
2019-05-12T09:49:44.438Z,270.00
2019-05-12T09:50:46.245Z,331.88
2019-05-12T09:51:45.926Z,331.88
2019-05-12T09:52:44.128Z,326.25
2019-05-12T09:53:51.024Z,264.38
2019-05-12T09:54:44.460Z,326.25
2019-05-12T09:55:43.898Z,337.50
2019-05-12T09:56:44.123Z,360.00
2019-05-12T09:57:45.134Z,365.63
2019-05-12T09:58:43.711Z,382.50
2019-05-12T09:59:45.905Z,140.63
2019-05-12T10:00:43.505Z,157.50
2019-05-12T10:01:45.945Z,123.75
2019-05-12T10:02:43.684Z,129.38
2019-05-12T10:03:43.727Z,140.63
2019-05-12T10:04:43.762Z,123.75
2019-05-12T10:05:44.178Z,112.50
2019-05-12T10:06:44.421Z,129.38
2019-05-12T10:07:44.548Z,118.13
2019-05-12T10:08:43.569Z,146.25
2019-05-12T10:09:44.012Z,180.00
2019-05-12T10:10:46.733Z,180.00
2019-05-12T10:11:44.736Z,180.00
2019-05-12T10:12:46.460Z,315.00
2019-05-12T10:13:44.960Z,135.00
2019-05-12T10:14:45.875Z,208.13
2019-05-12T10:15:43.088Z,393.75
2019-05-12T10:16:45.708Z,393.75
2019-05-12T10:17:43.509Z,416.25
2019-05-12T10:18:51.025Z,157.50
2019-05-12T10:19:43.464Z,129.38
2019-05-12T10:20:44.055Z,129.38
2019-05-12T10:21:43.993Z,140.63
2019-05-12T10:22:43.747Z,118.13
2019-05-12T10:23:43.614Z,135.00
2019-05-12T10:24:54.632Z,140.63
2019-05-12T10:25:44.717Z,354.38
2019-05-12T10:26:48.749Z,382.50
2019-05-12T10:27:44.334Z,360.00
2019-05-12T10:28:51.515Z,360.00
2019-05-12T10:29:43.691Z,354.38
2019-05-12T10:30:47.185Z,365.63
2019-05-12T10:31:44.516Z,371.25
2019-05-12T10:32:43.598Z,388.13
2019-05-12T10:33:43.359Z,416.25
2019-05-12T10:34:44.367Z,410.63
2019-05-12T10:35:43.912Z,399.38
2019-05-12T10:36:44.902Z,399.38
2019-05-12T10:37:43.706Z,410.63
2019-05-12T10:38:43.435Z,410.63
2019-05-12T10:39:42.884Z,213.75
2019-05-12T10:40:44.435Z,151.88
2019-05-12T10:41:43.692Z,196.88
2019-05-12T10:42:46.115Z,180.00
2019-05-12T10:43:43.397Z,123.75
2019-05-12T10:44:43.730Z,365.63
2019-05-12T10:45:44.182Z,371.25
2019-05-12T10:46:42.829Z,365.63
2019-05-12T10:47:42.827Z,123.75
2019-05-12T10:48:44.321Z,112.50
2019-05-12T10:49:44.150Z,112.50
2019-05-12T10:50:44.317Z,140.63
2019-05-12T10:51:44.140Z,135.00
2019-05-12T10:52:44.003Z,123.75
2019-05-12T10:53:43.257Z,118.13
2019-05-12T10:54:43.450Z,123.75
2019-05-12T10:55:44.062Z,129.38
2019-05-12T10:56:43.833Z,146.25
2019-05-12T10:57:43.895Z,393.75
2019-05-12T10:58:43.980Z,388.13
2019-05-12T10:59:45.264Z,146.25
2019-05-12T11:00:44.379Z,337.50
2019-05-12T11:01:47.229Z,168.75
2019-05-12T11:02:42.716Z,208.13
2019-05-12T11:03:50.660Z,382.50
2019-05-12T11:04:43.977Z,382.50
2019-05-12T11:05:44.088Z,365.63
2019-05-12T11:06:44.741Z,360.00
2019-05-12T11:07:43.580Z,354.38
2019-05-12T11:08:47.400Z,354.38
2019-05-12T11:09:43.942Z,354.38
2019-05-12T11:10:42.684Z,365.63
2019-05-12T11:11:46.773Z,376.88
2019-05-12T11:12:44.187Z,382.50
2019-05-12T11:13:48.609Z,382.50
2019-05-12T11:14:43.884Z,410.63
2019-05-12T11:15:47.771Z,258.75
2019-05-12T11:16:44.587Z,410.63
2019-05-12T11:17:46.066Z,191.25
2019-05-12T11:18:43.720Z,129.38
2019-05-12T11:19:47.109Z,123.75
2019-05-12T11:20:44.854Z,146.25
2019-05-12T11:21:44.337Z,123.75
2019-05-12T11:22:43.902Z,118.13
2019-05-12T11:23:43.637Z,382.50
2019-05-12T11:24:44.441Z,382.50
2019-05-12T11:25:43.977Z,371.25
2019-05-12T11:26:43.245Z,376.88
2019-05-12T11:27:43.685Z,101.25
2019-05-12T11:28:42.568Z,90.00
2019-05-12T11:29:48.593Z,360.00
2019-05-12T11:30:43.637Z,118.13
2019-05-12T11:31:44.098Z,112.50
2019-05-12T11:32:44.203Z,371.25
2019-05-12T11:33:43.611Z,365.63
2019-05-12T11:34:44.373Z,360.00
2019-05-12T11:35:43.507Z,360.00
2019-05-12T11:36:43.768Z,365.63
2019-05-12T11:37:42.529Z,365.63
2019-05-12T11:38:44.352Z,365.63
2019-05-12T11:39:45.251Z,376.88
2019-05-12T11:40:43.721Z,399.38
2019-05-12T11:41:44.231Z,399.38
2019-05-12T11:42:46.837Z,393.75
2019-05-12T11:43:42.497Z,382.50
2019-05-12T11:44:44.308Z,388.13
2019-05-12T11:45:44.222Z,388.13
2019-05-12T11:46:44.126Z,382.50
2019-05-12T11:47:44.642Z,376.88
2019-05-12T11:48:46.311Z,376.88
2019-05-12T11:49:44.164Z,309.38
2019-05-12T11:50:49.504Z,365.63
2019-05-12T11:51:42.510Z,388.13
2019-05-12T11:52:46.057Z,421.88
2019-05-12T11:53:44.548Z,388.13
2019-05-12T11:54:47.186Z,101.25
2019-05-12T11:55:43.814Z,90.00
2019-05-12T11:56:46.613Z,416.25
2019-05-12T11:57:43.774Z,303.75
2019-05-12T11:58:47.415Z,123.75
2019-05-12T11:59:43.451Z,416.25
2019-05-12T12:00:44.127Z,399.38
2019-05-12T12:01:47.435Z,405.00
2019-05-12T12:02:43.741Z,410.63
2019-05-12T12:03:44.047Z,410.63
2019-05-12T12:04:43.518Z,416.25
2019-05-12T12:05:44.278Z,416.25
2019-05-12T12:06:43.807Z,416.25
2019-05-12T12:07:49.072Z,421.88
2019-05-12T12:08:44.169Z,421.88
2019-05-12T12:09:43.852Z,421.88
2019-05-12T12:10:42.443Z,427.50
2019-05-12T12:11:43.339Z,438.75
2019-05-12T12:12:45.305Z,444.38
2019-05-12T12:13:42.457Z,455.63
2019-05-12T12:14:46.240Z,466.88
2019-05-12T12:15:42.449Z,438.75
2019-05-12T12:16:50.199Z,495.00
2019-05-12T12:17:44.149Z,309.38
2019-05-12T12:18:48.610Z,511.88
2019-05-12T12:19:46.701Z,371.25
2019-05-12T12:20:44.263Z,315.00
2019-05-12T12:21:48.054Z,556.88
2019-05-12T12:22:43.434Z,562.50
2019-05-12T12:23:48.817Z,562.50
2019-05-12T12:24:43.644Z,573.75
2019-05-12T12:25:43.079Z,596.25
2019-05-12T12:26:44.590Z,585.00
2019-05-12T12:27:44.249Z,596.25
2019-05-12T12:28:43.499Z,298.13
2019-05-12T12:29:43.861Z,489.38
2019-05-12T12:30:47.471Z,275.63
2019-05-12T12:31:43.394Z,106.88
2019-05-12T12:32:44.353Z,163.13
2019-05-12T12:33:46.867Z,624.38
2019-05-12T12:34:44.047Z,416.25
2019-05-12T12:35:44.352Z,613.13
2019-05-12T12:36:43.564Z,624.38
2019-05-12T12:37:44.838Z,618.75
2019-05-12T12:38:43.984Z,624.38
2019-05-12T12:39:43.473Z,613.13
2019-05-12T12:40:44.186Z,663.75
2019-05-12T12:41:45.669Z,151.88
2019-05-12T12:42:47.050Z,680.63
2019-05-12T12:43:43.267Z,675.00
2019-05-12T12:44:42.482Z,675.00
2019-05-12T12:45:43.449Z,669.38
2019-05-12T12:46:44.061Z,669.38
2019-05-12T12:47:44.407Z,669.38
2019-05-12T12:48:43.946Z,675.00
2019-05-12T12:49:47.570Z,680.63
2019-05-12T12:50:44.409Z,686.25
2019-05-12T12:51:43.561Z,686.25
2019-05-12T12:52:44.801Z,686.25
2019-05-12T12:53:43.769Z,691.88
2019-05-12T12:54:43.852Z,691.88
2019-05-12T12:55:43.716Z,691.88
2019-05-12T12:56:42.523Z,703.13
2019-05-12T12:57:46.467Z,708.75
2019-05-12T12:58:43.977Z,708.75
2019-05-12T12:59:50.997Z,708.75
2019-05-12T13:00:47.397Z,720.00
2019-05-12T13:01:44.275Z,725.63
2019-05-12T13:02:45.080Z,714.38
2019-05-12T13:03:43.496Z,725.63
2019-05-12T13:04:46.050Z,725.63
2019-05-12T13:05:43.896Z,725.63
2019-05-12T13:06:43.777Z,725.63
2019-05-12T13:07:43.949Z,759.38
2019-05-12T13:08:43.414Z,675.00
2019-05-12T13:09:44.107Z,720.00
2019-05-12T13:10:47.222Z,725.63
2019-05-12T13:11:44.450Z,725.63
2019-05-12T13:12:43.706Z,286.88
2019-05-12T13:13:42.590Z,230.63
2019-05-12T13:14:44.333Z,753.75
2019-05-12T13:15:44.408Z,230.63
2019-05-12T13:16:43.715Z,714.38
2019-05-12T13:17:44.739Z,731.25
2019-05-12T13:18:43.505Z,714.38
2019-05-12T13:19:43.684Z,135.00
2019-05-12T13:20:43.591Z,720.00
2019-05-12T13:21:43.938Z,410.63
2019-05-12T13:22:44.403Z,376.88
2019-05-12T13:23:45.269Z,731.25
2019-05-12T13:24:43.956Z,720.00
2019-05-12T13:25:48.372Z,703.13
2019-05-12T13:26:43.550Z,703.13
2019-05-12T13:27:42.633Z,697.50
2019-05-12T13:28:45.528Z,691.88
2019-05-12T13:29:42.642Z,708.75
2019-05-12T13:30:47.176Z,714.38
2019-05-12T13:31:46.479Z,708.75
2019-05-12T13:32:44.190Z,720.00
2019-05-12T13:33:44.248Z,641.25
2019-05-12T13:34:43.024Z,691.88
2019-05-12T13:35:43.484Z,675.00
2019-05-12T13:36:44.010Z,675.00
2019-05-12T13:37:43.287Z,675.00
2019-05-12T13:38:44.292Z,613.13
2019-05-12T13:39:55.174Z,669.38
2019-05-12T13:40:44.198Z,663.75
2019-05-12T13:41:43.778Z,680.63
2019-05-12T13:42:43.782Z,613.13
2019-05-12T13:43:42.688Z,686.25
2019-05-12T13:44:43.615Z,697.50
2019-05-12T13:45:43.968Z,686.25
2019-05-12T13:46:43.757Z,669.38
2019-05-12T13:47:43.976Z,675.00
2019-05-12T13:48:43.399Z,669.38
2019-05-12T13:49:47.272Z,663.75
2019-05-12T13:50:43.308Z,658.13
2019-05-12T13:51:42.965Z,658.13
2019-05-12T13:52:42.716Z,658.13
2019-05-12T13:53:46.513Z,635.63
2019-05-12T13:54:43.703Z,635.63
2019-05-12T13:55:47.546Z,630.00
2019-05-12T13:56:44.348Z,635.63
2019-05-12T13:57:52.323Z,646.88
2019-05-12T13:58:45.703Z,433.13
2019-05-12T13:59:43.493Z,652.50
2019-05-12T14:00:50.910Z,635.63
2019-05-12T14:01:45.505Z,635.63
2019-05-12T14:02:44.232Z,624.38
2019-05-12T14:03:48.674Z,630.00
2019-05-12T14:04:44.425Z,618.75
2019-05-12T14:05:50.546Z,613.13
2019-05-12T14:06:42.763Z,601.88
2019-05-12T14:07:43.681Z,607.50
2019-05-12T14:08:44.511Z,466.88
2019-05-12T14:09:43.726Z,168.75
2019-05-12T14:10:44.755Z,590.63
2019-05-12T14:11:43.754Z,585.00
2019-05-12T14:12:43.887Z,579.38
2019-05-12T14:13:42.793Z,568.13
2019-05-12T14:14:43.688Z,556.88
2019-05-12T14:15:44.349Z,540.00
2019-05-12T14:16:44.647Z,585.00
2019-05-12T14:17:43.583Z,568.13
2019-05-12T14:18:44.165Z,568.13
2019-05-12T14:19:43.769Z,556.88
2019-05-12T14:20:44.872Z,67.50
2019-05-12T14:21:42.795Z,73.13
2019-05-12T14:22:44.757Z,545.63
2019-05-12T14:23:43.664Z,534.38
2019-05-12T14:24:46.734Z,523.13
2019-05-12T14:25:43.741Z,517.50
2019-05-12T14:26:47.537Z,511.88
2019-05-12T14:27:44.321Z,506.25
2019-05-12T14:28:45.516Z,500.63
2019-05-12T14:29:44.098Z,500.63
2019-05-12T14:30:47.370Z,500.63
2019-05-12T14:31:51.060Z,500.63
2019-05-12T14:32:44.058Z,495.00
2019-05-12T14:33:44.214Z,495.00
2019-05-12T14:34:43.398Z,500.63
2019-05-12T14:35:45.311Z,495.00
2019-05-12T14:36:43.310Z,489.38
2019-05-12T14:37:45.830Z,483.75
2019-05-12T14:38:42.801Z,478.13
2019-05-12T14:39:46.220Z,472.50
2019-05-12T14:40:42.817Z,466.88
2019-05-12T14:41:52.834Z,461.25
2019-05-12T14:42:44.236Z,461.25
2019-05-12T14:43:47.523Z,450.00
2019-05-12T14:44:44.963Z,444.38
2019-05-12T14:45:44.011Z,444.38
2019-05-12T14:46:46.356Z,450.00
2019-05-12T14:47:43.678Z,410.63
2019-05-12T14:48:46.454Z,67.50
2019-05-12T14:49:43.594Z,433.13
2019-05-12T14:50:44.153Z,438.75
2019-05-12T14:51:44.270Z,444.38
2019-05-12T14:52:43.990Z,416.25
2019-05-12T14:53:46.065Z,95.63
2019-05-12T14:54:43.558Z,225.00
2019-05-12T14:55:42.805Z,410.63
2019-05-12T14:56:47.147Z,405.00
2019-05-12T14:57:42.792Z,405.00
2019-05-12T14:58:44.205Z,393.75
2019-05-12T14:59:42.797Z,388.13
2019-05-12T15:00:44.560Z,382.50
2019-05-12T15:01:56.918Z,371.25
2019-05-12T15:02:43.737Z,371.25
2019-05-12T15:03:47.814Z,388.13
2019-05-12T15:04:43.581Z,202.50
2019-05-12T15:05:47.381Z,61.88
2019-05-12T15:06:44.343Z,61.88
2019-05-12T15:07:51.198Z,61.88
2019-05-12T15:08:43.642Z,61.88
2019-05-12T15:09:42.766Z,388.13
2019-05-12T15:10:42.784Z,393.75
2019-05-12T15:11:43.744Z,185.63
2019-05-12T15:12:44.140Z,50.63
2019-05-12T15:13:43.696Z,50.63
2019-05-12T15:14:43.853Z,56.25
2019-05-12T15:15:44.060Z,388.13
2019-05-12T15:16:44.784Z,388.13
2019-05-12T15:17:44.379Z,371.25
2019-05-12T15:18:46.812Z,337.50
2019-05-12T15:19:44.057Z,292.50
2019-05-12T15:20:49.975Z,241.88
2019-05-12T15:21:43.691Z,157.50
2019-05-12T15:22:51.247Z,140.63
2019-05-12T15:23:44.125Z,146.25
2019-05-12T15:24:44.135Z,135.00
2019-05-12T15:25:43.312Z,129.38
2019-05-12T15:26:42.685Z,129.38
2019-05-12T15:27:46.052Z,135.00
2019-05-12T15:28:43.412Z,135.00
2019-05-12T15:29:43.145Z,135.00
2019-05-12T15:30:43.640Z,50.63
2019-05-12T15:31:53.127Z,45.00
2019-05-12T15:32:42.649Z,50.63
2019-05-12T15:33:43.965Z,50.63
2019-05-12T15:34:44.153Z,56.25
2019-05-12T15:35:43.915Z,50.63
2019-05-12T15:36:45.902Z,45.00
2019-05-12T15:37:43.707Z,45.00
2019-05-12T15:38:43.703Z,45.00
2019-05-12T15:39:44.034Z,45.00
2019-05-12T15:40:43.397Z,45.00
2019-05-12T15:41:42.589Z,45.00
2019-05-12T15:42:44.969Z,39.38
2019-05-12T15:43:44.418Z,39.38
2019-05-12T15:44:43.339Z,39.38
2019-05-12T15:45:43.644Z,50.63
2019-05-12T15:46:46.002Z,50.63
2019-05-12T15:47:44.556Z,56.25
2019-05-12T15:48:44.498Z,56.25
2019-05-12T15:49:44.269Z,50.63
2019-05-12T15:50:45.553Z,45.00
2019-05-12T15:51:53.117Z,45.00
2019-05-12T15:52:45.394Z,45.00
2019-05-12T15:53:44.557Z,45.00
2019-05-12T15:54:47.188Z,50.63
2019-05-12T15:55:43.474Z,50.63
2019-05-12T15:56:42.410Z,50.63
2019-05-12T15:57:44.015Z,50.63
2019-05-12T15:58:44.159Z,45.00
2019-05-12T15:59:43.495Z,39.38
2019-05-12T16:00:43.857Z,45.00
2019-05-12T16:01:43.916Z,45.00
2019-05-12T16:02:44.258Z,39.38
2019-05-12T16:03:43.834Z,45.00
2019-05-12T16:04:44.545Z,45.00
2019-05-12T16:05:44.374Z,33.75
2019-05-12T16:06:52.615Z,33.75
2019-05-12T16:07:43.639Z,33.75
2019-05-12T16:08:42.272Z,39.38
2019-05-12T16:09:45.385Z,39.38
2019-05-12T16:10:42.244Z,39.38
2019-05-12T16:11:42.236Z,33.75
2019-05-12T16:12:43.422Z,33.75
2019-05-12T16:13:44.909Z,33.75
2019-05-12T16:14:44.108Z,28.13
2019-05-12T16:15:43.835Z,28.13
2019-05-12T16:16:42.881Z,28.13
2019-05-12T16:17:44.075Z,33.75
2019-05-12T16:18:46.685Z,39.38
2019-05-12T16:19:43.819Z,39.38
2019-05-12T16:20:44.203Z,39.38
2019-05-12T16:21:45.338Z,39.38
2019-05-12T16:22:44.896Z,39.38
2019-05-12T16:23:44.515Z,39.38
2019-05-12T16:24:43.285Z,33.75
2019-05-12T16:25:42.054Z,33.75
2019-05-12T16:26:45.368Z,33.75
2019-05-12T16:27:44.185Z,33.75
2019-05-12T16:28:44.005Z,33.75
2019-05-12T16:29:45.554Z,33.75
2019-05-12T16:30:43.901Z,28.13
2019-05-12T16:31:45.597Z,28.13
2019-05-12T16:32:46.974Z,28.13
2019-05-12T16:33:43.645Z,28.13
2019-05-12T16:34:44.930Z,33.75
2019-05-12T16:35:44.117Z,28.13
2019-05-12T16:36:47.476Z,28.13
2019-05-12T16:37:43.987Z,28.13
2019-05-12T16:38:44.364Z,28.13
2019-05-12T16:39:46.869Z,28.13
2019-05-12T16:40:45.549Z,33.75
2019-05-12T16:41:43.863Z,33.75
2019-05-12T16:42:48.303Z,28.13
2019-05-12T16:43:44.019Z,28.13
2019-05-12T16:44:43.841Z,28.13
2019-05-12T16:45:41.786Z,28.13
2019-05-12T16:46:41.769Z,22.50
2019-05-12T16:47:41.772Z,28.13
2019-05-12T16:48:42.248Z,28.13
2019-05-12T16:49:44.062Z,28.13
2019-05-12T16:50:43.724Z,28.13
2019-05-12T16:51:43.702Z,28.13
2019-05-12T16:52:42.825Z,28.13
2019-05-12T16:53:43.633Z,28.13
2019-05-12T16:54:43.815Z,28.13
2019-05-12T16:55:46.504Z,28.13
2019-05-12T16:56:43.370Z,22.50
2019-05-12T16:57:47.535Z,22.50
2019-05-12T16:58:43.375Z,22.50
2019-05-12T16:59:41.596Z,22.50
2019-05-12T17:00:45.185Z,22.50
2019-05-12T17:01:43.756Z,22.50
2019-05-12T17:02:42.283Z,22.50
2019-05-12T17:03:41.553Z,22.50
2019-05-12T17:04:41.522Z,22.50
2019-05-12T17:05:41.512Z,28.13
2019-05-12T17:06:43.262Z,22.50
2019-05-12T17:07:43.907Z,22.50
2019-05-12T17:08:43.694Z,22.50
2019-05-12T17:09:43.357Z,22.50
2019-05-12T17:10:46.990Z,28.13
2019-05-12T17:11:46.693Z,28.13
2019-05-12T17:12:43.688Z,28.13
2019-05-12T17:13:47.351Z,22.50
2019-05-12T17:14:48.091Z,22.50
2019-05-12T17:15:43.367Z,22.50
2019-05-12T17:16:45.124Z,22.50
2019-05-12T17:17:41.338Z,22.50
2019-05-12T17:18:41.326Z,22.50
2019-05-12T17:19:43.379Z,22.50
2019-05-12T17:20:47.002Z,22.50
2019-05-12T17:21:41.288Z,22.50
2019-05-12T17:22:45.776Z,22.50
2019-05-12T17:23:41.258Z,22.50
2019-05-12T17:24:41.274Z,22.50
2019-05-12T17:25:41.226Z,22.50
2019-05-12T17:26:41.235Z,28.13
2019-05-12T17:27:41.222Z,28.13
2019-05-12T17:28:43.474Z,28.13
2019-05-12T17:29:43.379Z,28.13
2019-05-12T17:30:43.535Z,28.13
2019-05-12T17:31:41.143Z,22.50
2019-05-12T17:32:54.899Z,22.50
2019-05-12T17:33:41.116Z,22.50
2019-05-12T17:34:45.843Z,22.50
2019-05-12T17:35:41.082Z,16.88
2019-05-12T17:36:41.120Z,16.88
2019-05-12T17:37:41.516Z,16.88
2019-05-12T17:38:41.046Z,16.88
2019-05-12T17:39:41.047Z,16.88
2019-05-12T17:40:41.021Z,22.50
2019-05-12T17:41:44.993Z,16.88
2019-05-12T17:42:41.016Z,16.88
2019-05-12T17:43:54.847Z,16.88
2019-05-12T17:44:40.956Z,16.88
2019-05-12T17:45:40.940Z,16.88
2019-05-12T17:46:40.933Z,16.88
2019-05-12T17:47:41.011Z,16.88
2019-05-12T17:48:42.837Z,16.88
2019-05-12T17:49:43.410Z,16.88
2019-05-12T17:50:48.557Z,16.88
2019-05-12T17:51:40.864Z,16.88
2019-05-12T17:52:40.850Z,16.88
2019-05-12T17:53:40.831Z,16.88
2019-05-12T17:54:43.234Z,11.25
2019-05-12T17:55:42.630Z,11.25
2019-05-12T17:56:40.782Z,11.25
2019-05-12T17:57:40.794Z,11.25
2019-05-12T17:58:45.197Z,11.25
2019-05-12T17:59:42.555Z,11.25
2019-05-12T18:00:41.261Z,11.25
2019-05-12T18:01:40.721Z,11.25
2019-05-12T18:02:40.711Z,11.25
2019-05-12T18:03:48.706Z,11.25
2019-05-12T18:04:40.682Z,11.25
2019-05-12T18:05:42.519Z,11.25
2019-05-12T18:06:40.639Z,11.25
2019-05-12T18:07:40.641Z,11.25
2019-05-12T18:08:40.617Z,11.25
2019-05-12T18:09:40.605Z,11.25
2019-05-12T18:10:40.596Z,11.25
2019-05-12T18:11:40.585Z,11.25
2019-05-12T18:12:44.842Z,11.25
2019-05-12T18:13:40.544Z,11.25